Aviation Digital Data Service (ADDS)

Output produced by TAFs form (2034 UTC 20 July 2018)
found at http://www.aviationweather.gov/adds/tafs/
 
KPIT 201951Z 22008KT 10SM SCT040 BKN075 BKN150 24/21 A2994 RMK AO2 SLP138 RAE23 TSE14 CB DSNT NE P0014 T02390211 $
KPIT 201901Z 2019/2124 21012KT P6SM VCTS BKN045CB 
     TEMPO 2019/2020 VRB10G20KT 3SM -TSRA BKN045CB 
     FM202300 14010KT P6SM VCSH BKN060 
     FM210300 14007KT P6SM SCT025 BKN120 
     FM211600 13012KT P6SM VCTS BKN040CB
       
KBVI 201947Z AUTO 17007KT 10SM CLR 25/19 A2995 RMK RUNWAY 10 IN USE.
KBVI 201736Z 2018/2118 15012KT P6SM VCTS BKN045CB 
     FM202300 14010KT P6SM VCSH BKN060 
     FM210300 14007KT P6SM SCT025 BKN120 
     FM211600 13012KT P6SM VCTS BKN040CB
       
KFKL 202024Z AUTO 22004KT 10SM -RA BKN049 BKN060 24/17 A2997 RMK AO2 LTG DSNT NW TSB03E18RAB22 P0000
KFKL 201930Z 2020/2118 16010G20KT P6SM VCTS SCT050CB 
     FM202130 15012KT P6SM BKN070 
     FM211100 13011KT P6SM VCTS BKN050CB
       
KERI 202025Z 18014G21KT 10SM VCTS BKN065 31/17 A2989 RMK AO2 PK WND 13026/1956 LTG DSNT S AND SW T03060167
KERI 202001Z 2020/2118 15012G18KT P6SM VCTS SCT035CB OVC100 
     TEMPO 2020/2022 3SM -TSRA OVC025CB 
     FM210200 16013KT P6SM BKN100 
     FM211600 14015G25KT P6SM BKN080